Chengjisihan Airport


Codes: ZBZL/NZL
Name: Chengjisihan Airport
City: Zhalantun
Country: China
Elevation: 928 ft.

Photos at Chengjisihan Airport


   Photos courtesy of SpottingLog. You can add your own sightings and photos by signing up for a free trial today.



No photos found.

Weather at Chengjisihan Airport


Time (UTC)DescriptionTempratureWindCloud coverageVisibilityPressureHumidity
25-Jun-2024 12:00Broken Clouds24°C7 mph, S67%10000m1007hPa50%
25-Jun-2024 15:00Broken Clouds23°C4 mph, W70%10000m1007hPa54%
25-Jun-2024 18:00Light Rain20°C4 mph, W73%10000m1008hPa63%
25-Jun-2024 21:00Light Rain18°C4 mph, NW62%10000m1008hPa80%
26-Jun-2024 00:00Light Rain24°C4 mph, W78%10000m1009hPa57%
26-Jun-2024 03:00Overcast Clouds30°C2 mph, N91%10000m1007hPa37%
26-Jun-2024 06:00Moderate Rain18°C13 mph, S86%10000m1007hPa95%
26-Jun-2024 09:00Light Rain23°C16 mph, S89%10000m1006hPa66%
26-Jun-2024 12:00Light Rain18°C9 mph, E90%10000m1009hPa94%
26-Jun-2024 15:00Light Rain17°C7 mph, W100%10000m1007hPa92%
26-Jun-2024 18:00Overcast Clouds17°C4 mph, W90%10000m1006hPa89%
26-Jun-2024 21:00Light Rain18°C2 mph, SE98%10000m1006hPa88%
27-Jun-2024 00:00Light Rain22°C7 mph, S85%10000m1005hPa70%
27-Jun-2024 03:00Scattered Clouds28°C9 mph, S40%10000m1003hPa51%
27-Jun-2024 06:00Scattered Clouds31°C13 mph, S26%10000m1000hPa43%
27-Jun-2024 09:00Moderate Rain20°C9 mph, NW64%10000m1002hPa76%
27-Jun-2024 12:00Broken Clouds20°C4 mph, NW81%10000m999hPa69%
27-Jun-2024 15:00Light Rain17°C4 mph, NE72%10000m1002hPa89%
27-Jun-2024 18:00Light Rain17°C2 mph, W61%10000m1002hPa89%
27-Jun-2024 21:00Light Rain17°C4 mph, N100%10000m1002hPa90%
28-Jun-2024 00:00Light Rain22°C9 mph, NE87%10000m1002hPa73%
28-Jun-2024 03:00Overcast Clouds26°C7 mph, E100%10000m1001hPa54%
28-Jun-2024 06:00Overcast Clouds28°C4 mph, SE100%10000m999hPa48%
28-Jun-2024 09:00Overcast Clouds28°C7 mph, SW97%10000m999hPa51%
28-Jun-2024 12:00Light Rain22°C4 mph, W99%10000m999hPa72%
28-Jun-2024 15:00Moderate Rain19°C4 mph, NW100%10000m1000hPa94%
28-Jun-2024 18:00Light Rain19°C2 mph, NE100%10000m998hPa94%
28-Jun-2024 21:00Overcast Clouds19°C2 mph, NW100%10000m999hPa94%
29-Jun-2024 00:00Overcast Clouds22°C4 mph, N100%10000m999hPa80%
29-Jun-2024 03:00Light Rain24°C9 mph, NE100%10000m999hPa72%
29-Jun-2024 06:00Light Rain26°C4 mph, E100%10000m998hPa59%
29-Jun-2024 09:00Light Rain27°C7 mph, E100%10000m998hPa59%
29-Jun-2024 12:00Light Rain21°C0 mph, E100%10000m999hPa79%
29-Jun-2024 15:00Light Rain20°C7 mph, N100%10000m999hPa85%
29-Jun-2024 18:00Overcast Clouds15°C18 mph, NE100%10000m1002hPa82%
29-Jun-2024 21:00Light Rain16°C11 mph, NE100%10000m1004hPa83%
30-Jun-2024 00:00Light Rain18°C13 mph, NE100%10000m1005hPa72%
30-Jun-2024 03:00Overcast Clouds22°C13 mph, NE100%10000m1005hPa45%
30-Jun-2024 06:00Overcast Clouds26°C11 mph, E91%10000m1004hPa36%
30-Jun-2024 09:00Broken Clouds25°C9 mph, E84%10000m1003hPa38%